Terminal Aerodrome Forecast
Issued by NWS

Home | Current Version | Previous Version | Text Only | Print | Product List | Glossary On
Versions: 1 2 3 4 5 6 7 8 9 10 11 12 13 14 15 16 17 18 19 20 21 22 23 24 25 26 27 28 29
041
FTUS43 KGRR 240747 AAA
TAFBTL
TAF AMD
KBTL 240747Z 2408/2506 09008KT P6SM -SHRA OVC009
     FM241100 09008KT 5SM -RA BR OVC007
     FM242100 19008KT 2SM -TSRA BR OVC004CB
     FM250000 19005KT 1 1/2SM -SHRA BR OVC003
     FM250500 23009KT 2SM BR OVC015=

USA.gov is the U.S. government's official web portal to all federal, state and local government web resources and services.